Stations météo

réclame
Mon MeteoGroup
Sumburgh, Grande-Bretagne (3003): Température de l'air & dewpoint: 13.01.2020 20:00:00 - 19.01.2020 20:00:00 (GMT)Sumburgh, Grande-Bretagne (3003): Vitesse du vent: 13.01.2020 20:00:00 - 19.01.2020 20:00:00 (GMT)Sumburgh, Grande-Bretagne (3003): Direction du vent: 13.01.2020 20:00:00 - 19.01.2020 20:00:00 (GMT)Sumburgh, Grande-Bretagne (3003): visibility: 13.01.2020 20:00:00 - 19.01.2020 20:00:00 (GMT)
Date & Time tt [°C] td [°C] ff [km/h] ff [knt] dd vv [km]
19.01.2020 20:00:00 9,0 7,0 59 32 WSW 4,3
19.01.2020 19:00:00 9,0 7,0 50 27 WSW 8
19.01.2020 18:00:00 9,0 6,0 59 32 WSW 10
19.01.2020 17:00:00 9,0 6,0 50 27 SW 10
19.01.2020 16:00:00 9,0 5,0 54 29 WSW 10
19.01.2020 15:00:00 8,0 4,0 44 24 SW 10
19.01.2020 14:00:00 8,0 5,0 39 21 SW 10
19.01.2020 13:00:00 8,0 5,0 35 19 SW 10
19.01.2020 12:00:00 8,0 5,0 34 18 SW 10
19.01.2020 11:00:00 8,0 5,0 34 18 SW 10
19.01.2020 10:00:00 8,0 5,0 37 20 WSW 10
19.01.2020 09:00:00 8,0 5,0 35 19 WSW 10
19.01.2020 08:00:00 8,0 5,0 34 18 W 10
19.01.2020 07:00:00 8,0 4,0 34 18 W 10
19.01.2020 06:00:00 7,0 3,0 39 21 W 10
19.01.2020 05:00:00 8,0 4,0 29 16 WNW 10
19.01.2020 04:00:00 7,0 3,0 29 16 WNW 10
19.01.2020 03:00:00 7,0 3,0 18 10 WNW 10
19.01.2020 02:00:00 7,0 2,0 35 19 WNW 10
19.01.2020 01:00:00 7,0 3,0 29 16 WNW 10
19.01.2020 00:00:00 7,0 2,0 29 16 NW 10
18.01.2020 23:00:00 7,0 2,0 35 19 WNW 10
18.01.2020 22:00:00 7,0 1,0 41 22 NW 10
18.01.2020 21:00:00 7,0 0,0 46 25 NW 10
18.01.2020 20:00:00 7,0 0,0 44 24 NW 10
18.01.2020 19:00:00 7,0 -2,0 42 23 NNW 10
18.01.2020 18:00:00 7,0 -3,0 48 26 NW 10
18.01.2020 17:00:00 6,0 0,0 44 24 NW 10
18.01.2020 16:00:00 6,0 -1,0 39 21 NNW 10
18.01.2020 15:00:00 6,0 0,0 48 26 NW 10
18.01.2020 14:00:00 7,0 0,0 46 25 NW 10
18.01.2020 13:00:00 6,0 1,0 44 24 NW 10
18.01.2020 12:00:00 6,0 1,0 52 28 NW 10
18.01.2020 11:00:00 7,0 1,0 50 27 WNW 10
18.01.2020 10:00:00 7,0 -1,0 48 26 WNW 10
18.01.2020 09:00:00 7,0 -1,0 44 24 WNW 10
18.01.2020 08:00:00 7,0 0,0 46 25 WNW 9
18.01.2020 07:00:00 7,0 1,0 48 26 WNW 8
18.01.2020 06:00:00 7,0 1,0 42 23 WNW 10
18.01.2020 05:00:00 7,0 3,0 48 26 WNW 10
18.01.2020 04:00:00 7,0 3,0 41 22 WNW 10
18.01.2020 03:00:00 7,0 3,0 44 24 WNW 10
18.01.2020 02:00:00 7,0 3,0 50 27 W 10
18.01.2020 01:00:00 8,0 3,0 48 26 W 10
18.01.2020 00:00:00 8,0 4,0 50 27 W 10
17.01.2020 23:00:00 8,0 4,0 55 30 W 10
17.01.2020 22:00:00 8,0 4,0 46 25 W 10
17.01.2020 21:00:00 7,0 4,0 59 32 W 10
17.01.2020 20:00:00 8,0 5,0 57 31 WSW 8
17.01.2020 19:00:00 8,0 5,0 61 33 WSW 10
17.01.2020 18:00:00 8,0 5,0 59 32 WSW 8
17.01.2020 17:00:00 8,0 5,0 55 30 SW 9
17.01.2020 16:00:00 8,0 4,0 61 33 SW 10
17.01.2020 15:00:00 8,0 4,0 63 34 SW 8
17.01.2020 14:00:00 8,0 3,0 57 31 SSW 10
17.01.2020 13:00:00 8,0 3,0 59 32 SSW 10
17.01.2020 12:00:00 8,0 2,0 57 31 SSW 10
17.01.2020 11:00:00 8,0 2,0 54 29 SSW 10
17.01.2020 10:00:00 7,0 2,0 50 27 SSW 10
17.01.2020 09:00:00 7,0 2,0 50 27 SSW 10
17.01.2020 08:00:00 7,0 2,0 46 25 SSW 10
17.01.2020 07:00:00 8,0 3,0 44 24 SSW 10
17.01.2020 06:00:00 8,0 3,0 42 23 SSW 10
17.01.2020 05:00:00 8,0 4,0 39 21 S 10
17.01.2020 04:00:00 8,0 4,0 31 17 SSW 10
17.01.2020 03:00:00 8,0 4,0 39 21 SSW 10
17.01.2020 02:00:00 8,0 5,0 46 25 SSW 10
17.01.2020 01:00:00 8,0 6,0 39 21 SSW 10
17.01.2020 00:00:00 9,0 7,0 37 20 SSW 9
16.01.2020 23:00:00 9,0 7,0 42 23 S 8
16.01.2020 22:00:00 9,0 7,0 42 23 S 5
16.01.2020 21:00:00 8,0 6,0 41 22 SE 4,7
16.01.2020 20:00:00 8,0 6,0 46 25 SSE 6
16.01.2020 19:00:00 8,0 5,0 44 24 SSE 10
16.01.2020 18:00:00 8,0 6,0 42 23 SSE 10
16.01.2020 17:00:00 8,0 6,0 41 22 SSE 10
16.01.2020 16:00:00 8,0 6,0 28 15 SSE 10
16.01.2020 15:00:00 8,0 6,0 26 14 S 8
16.01.2020 14:00:00 8,0 6,0 26 14 S 8
16.01.2020 13:00:00 8,0 5,0 31 17 S 10
16.01.2020 12:00:00 8,0 4,0 29 16 S 10
16.01.2020 11:00:00 7,0 4,0 37 20 SSW 10
16.01.2020 10:00:00 7,0 4,0 31 17 SSW 10
16.01.2020 09:00:00 7,0 4,0 37 20 SW 10
16.01.2020 08:00:00 8,0 5,0 42 23 SW 9
16.01.2020 07:00:00 8,0 4,0 50 27 WSW 10
16.01.2020 06:00:00 8,0 5,0 57 31 WSW 10
16.01.2020 05:00:00 8,0 5,0 50 27 WSW 2,7
16.01.2020 04:00:00 8,0 5,0 54 29 WSW 10
16.01.2020 03:00:00 8,0 5,0 52 28 WSW 10
16.01.2020 02:00:00 8,0 5,0 54 29 WSW 10
16.01.2020 01:00:00 8,0 5,0 70 38 W 5
16.01.2020 00:00:00 8,0 5,0 57 31 WSW 10
15.01.2020 23:00:00 8,0 6,0 59 32 WSW 9
15.01.2020 22:00:00 8,0 5,0 61 33 WSW 10
15.01.2020 21:00:00 8,0 5,0 61 33 WSW 8
15.01.2020 20:00:00 8,0 5,0 52 28 SW 10
15.01.2020 19:00:00 8,0 5,0 54 29 SW 10
15.01.2020 18:00:00 8,0 6,0 46 25 SW 10
15.01.2020 17:00:00 8,0 6,0 42 23 SW 9
15.01.2020 16:00:00 7,0 5,0 46 25 SSW 10
15.01.2020 15:00:00 7,0 5,0 46 25 SSW 10
15.01.2020 14:00:00 7,0 5,0 52 28 SW 7
15.01.2020 13:00:00 7,0 4,0 55 30 SSW 10
15.01.2020 12:00:00 7,0 3,0 55 30 SSW 10
15.01.2020 11:00:00 7,0 3,0 57 31 SSW 10
15.01.2020 10:00:00 7,0 3,0 63 34 SSW 10
15.01.2020 09:00:00 7,0 2,0 59 32 SSW 10
15.01.2020 08:00:00 7,0 2,0 57 31 SSW 10
15.01.2020 07:00:00 6,0 2,0 52 28 SSW 10
15.01.2020 06:00:00 6,0 1,0 52 28 SSW 10
15.01.2020 05:00:00 6,0 2,0 48 26 SSW 10
15.01.2020 04:00:00 6,0 2,0 54 29 SSW 10
15.01.2020 03:00:00 6,0 2,0 48 26 SSW 10
15.01.2020 02:00:00 6,0 1,0 52 28 SSW 10
15.01.2020 01:00:00 6,0 2,0 46 25 SSW 10
15.01.2020 00:00:00 6,0 2,0 50 27 SW 10
14.01.2020 23:00:00 6,0 1,0 46 25 SW 10
14.01.2020 22:00:00 7,0 1,0 50 27 SW 10
14.01.2020 21:00:00 6,0 1,0 42 23 SSW 10
14.01.2020 20:00:00 6,0 1,0 42 23 SSW 10
14.01.2020 19:00:00 6,0 1,0 42 23 SSW 10
14.01.2020 18:00:00 - - - - - -
14.01.2020 17:00:00 6,0 0,0 42 23 SSW 10
14.01.2020 16:00:00 6,0 0,0 46 25 SSW 10
14.01.2020 15:00:00 6,0 0,0 52 28 SSW 10
14.01.2020 14:00:00 6,0 1,0 50 27 SSW 10
14.01.2020 13:00:00 6,0 1,0 48 26 SSW 10
14.01.2020 12:00:00 6,0 1,0 52 28 SSW 10
14.01.2020 11:00:00 6,0 1,0 55 30 SSW 10
14.01.2020 10:00:00 6,0 1,0 57 31 SSW 10
14.01.2020 09:00:00 6,0 1,0 59 32 SW 10
14.01.2020 08:00:00 6,0 0,0 59 32 SSW 10
14.01.2020 07:00:00 6,0 1,0 59 32 SSW 10
14.01.2020 06:00:00 6,0 2,0 52 28 SSW 10
14.01.2020 05:00:00 7,0 2,0 46 25 SSW 10
14.01.2020 04:00:00 7,0 3,0 54 29 SSW 10
14.01.2020 03:00:00 7,0 3,0 52 28 SSW 10
14.01.2020 02:00:00 8,0 3,0 54 29 SSW 10
14.01.2020 01:00:00 8,0 4,0 48 26 SSW 10
14.01.2020 00:00:00 8,0 4,0 54 29 SSW 10
13.01.2020 23:00:00 8,0 4,0 61 33 S 10
13.01.2020 22:00:00 8,0 5,0 59 32 S 9
13.01.2020 21:00:00 7,0 5,0 70 38 SSE 3,3
13.01.2020 20:00:00 7,0 5,0 68 37 SSE 1,8

tt = Température de l'air
td = dewpoint
ff = Vitesse du vent
dd = Direction du vent
vv = visibility

stations d'obs. à proximité